sensor_id;sensor_type;location;lat;lon;timestamp;pressure;altitude;pressure_sealevel;temperature;humidity
14689;BME280;7432;48.728;9.154;2023-11-21T00:01:24;143671.16;;;7.49;100.00
14689;BME280;7432;48.728;9.154;2023-11-21T00:03:51;143661.53;;;7.45;100.00
14689;BME280;7432;48.728;9.154;2023-11-21T00:06:21;143660.31;;;7.44;100.00
14689;BME280;7432;48.728;9.154;2023-11-21T00:08:47;143644.59;;;7.38;100.00
14689;BME280;7432;48.728;9.154;2023-11-21T00:11:13;143649.47;;;7.40;100.00
14689;BME280;7432;48.728;9.154;2023-11-21T00:13:40;143656.72;;;7.43;100.00
14689;BME280;7432;48.728;9.154;2023-11-21T00:16:06;143660.31;;;7.44;100.00
14689;BME280;7432;48.728;9.154;2023-11-21T00:18:33;143667.56;;;7.47;100.00
14689;BME280;7432;48.728;9.154;2023-11-21T00:21:00;143661.53;;;7.45;100.00
14689;BME280;7432;48.728;9.154;2023-11-21T00:23:27;143678.41;;;7.52;100.00
14689;BME280;7432;48.728;9.154;2023-11-21T00:25:54;143685.66;;;7.55;100.00
14689;BME280;7432;48.728;9.154;2023-11-21T00:28:20;143680.84;;;7.53;100.00
14689;BME280;7432;48.728;9.154;2023-11-21T00:30:47;143682.06;;;7.53;100.00
14689;BME280;7432;48.728;9.154;2023-11-21T00:33:13;143668.78;;;7.48;100.00
14689;BME280;7432;48.728;9.154;2023-11-21T00:35:40;143674.81;;;7.50;100.00
14689;BME280;7432;48.728;9.154;2023-11-21T00:38:06;143695.34;;;7.59;100.00
14689;BME280;7432;48.728;9.154;2023-11-21T00:40:35;143683.28;;;7.54;100.00
14689;BME280;7432;48.728;9.154;2023-11-21T00:43:01;143674.81;;;7.50;100.00
14689;BME280;7432;48.728;9.154;2023-11-21T00:45:28;143667.56;;;7.47;100.00
14689;BME280;7432;48.728;9.154;2023-11-21T00:47:54;143663.97;;;7.46;100.00
14689;BME280;7432;48.728;9.154;2023-11-21T00:50:22;143648.25;;;7.39;100.00
14689;BME280;7432;48.728;9.154;2023-11-21T00:52:49;143655.50;;;7.42;100.00
14689;BME280;7432;48.728;9.154;2023-11-21T00:55:16;143650.69;;;7.40;100.00
14689;BME280;7432;48.728;9.154;2023-11-21T00:57:44;143610.84;;;7.24;100.00
14689;BME280;7432;48.728;9.154;2023-11-21T01:00:11;143609.63;;;7.23;100.00
14689;BME280;7432;48.728;9.154;2023-11-21T01:02:39;143595.16;;;7.17;100.00
14689;BME280;7432;48.728;9.154;2023-11-21T01:05:06;143591.53;;;7.15;100.00
14689;BME280;7432;48.728;9.154;2023-11-21T01:07:33;143602.41;;;7.20;100.00
14689;BME280;7432;48.728;9.154;2023-11-21T01:09:59;143619.25;;;7.27;100.00
14689;BME280;7432;48.728;9.154;2023-11-21T01:12:26;143618.09;;;7.27;100.00
14689;BME280;7432;48.728;9.154;2023-11-21T01:14:53;143630.16;;;7.32;100.00
14689;BME280;7432;48.728;9.154;2023-11-21T01:17:20;143631.38;;;7.32;100.00
14689;BME280;7432;48.728;9.154;2023-11-21T01:19:47;143636.19;;;7.34;100.00
14689;BME280;7432;48.728;9.154;2023-11-21T01:22:14;143644.59;;;7.38;100.00
14689;BME280;7432;48.728;9.154;2023-11-21T01:24:41;143647.03;;;7.39;100.00
14689;BME280;7432;48.728;9.154;2023-11-21T01:27:07;143663.97;;;7.46;100.00
14689;BME280;7432;48.728;9.154;2023-11-21T01:29:34;143662.75;;;7.45;100.00
14689;BME280;7432;48.728;9.154;2023-11-21T01:32:02;143659.09;;;7.44;100.00
14689;BME280;7432;48.728;9.154;2023-11-21T01:34:29;143659.09;;;7.44;100.00
14689;BME280;7432;48.728;9.154;2023-11-21T01:36:56;143660.31;;;7.44;100.00
14689;BME280;7432;48.728;9.154;2023-11-21T01:39:22;143684.44;;;7.54;100.00
14689;BME280;7432;48.728;9.154;2023-11-21T01:41:49;143685.66;;;7.55;100.00
14689;BME280;7432;48.728;9.154;2023-11-21T01:44:16;143668.78;;;7.48;100.00
14689;BME280;7432;48.728;9.154;2023-11-21T01:46:44;143671.16;;;7.49;100.00
14689;BME280;7432;48.728;9.154;2023-11-21T01:49:12;143665.13;;;7.46;100.00
14689;BME280;7432;48.728;9.154;2023-11-21T01:51:40;143672.38;;;7.49;100.00
14689;BME280;7432;48.728;9.154;2023-11-21T01:54:07;143655.50;;;7.42;100.00
14689;BME280;7432;48.728;9.154;2023-11-21T01:56:34;143665.13;;;7.46;100.00
14689;BME280;7432;48.728;9.154;2023-11-21T01:59:01;143662.75;;;7.45;100.00
14689;BME280;7432;48.728;9.154;2023-11-21T02:01:27;143668.78;;;7.48;100.00
14689;BME280;7432;48.728;9.154;2023-11-21T02:03:53;143667.56;;;7.47;100.00
14689;BME280;7432;48.728;9.154;2023-11-21T02:06:22;143667.56;;;7.47;100.00
14689;BME280;7432;48.728;9.154;2023-11-21T02:08:49;143670.00;;;7.48;100.00
14689;BME280;7432;48.728;9.154;2023-11-21T02:11:16;143673.59;;;7.50;100.00
14689;BME280;7432;48.728;9.154;2023-11-21T02:13:44;143677.19;;;7.51;100.00
14689;BME280;7432;48.728;9.154;2023-11-21T02:16:11;143676.03;;;7.51;100.00
14689;BME280;7432;48.728;9.154;2023-11-21T02:18:37;143673.59;;;7.50;100.00
14689;BME280;7432;48.728;9.154;2023-11-21T02:21:04;143670.00;;;7.48;100.00
14689;BME280;7432;48.728;9.154;2023-11-21T02:23:32;143670.00;;;7.48;100.00
14689;BME280;7432;48.728;9.154;2023-11-21T02:25:59;143671.16;;;7.49;100.00
14689;BME280;7432;48.728;9.154;2023-11-21T02:28:29;143672.38;;;7.49;100.00
14689;BME280;7432;48.728;9.154;2023-11-21T02:30:55;143673.59;;;7.50;100.00
14689;BME280;7432;48.728;9.154;2023-11-21T02:33:24;143657.88;;;7.43;100.00
14689;BME280;7432;48.728;9.154;2023-11-21T02:35:50;143630.16;;;7.32;100.00
14689;BME280;7432;48.728;9.154;2023-11-21T02:38:20;143613.22;;;7.25;100.00
14689;BME280;7432;48.728;9.154;2023-11-21T02:40:48;143602.41;;;7.20;100.00
14689;BME280;7432;48.728;9.154;2023-11-21T02:43:14;143593.94;;;7.16;100.00
14689;BME280;7432;48.728;9.154;2023-11-21T02:45:40;143571.03;;;7.07;100.00
14689;BME280;7432;48.728;9.154;2023-11-21T02:48:07;143557.75;;;7.01;100.00
14689;BME280;7432;48.728;9.154;2023-11-21T02:50:34;143555.31;;;7.00;100.00
14689;BME280;7432;48.728;9.154;2023-11-21T02:53:00;143544.47;;;6.96;100.00
14689;BME280;7432;48.728;9.154;2023-11-21T02:55:27;143544.47;;;6.96;100.00
14689;BME280;7432;48.728;9.154;2023-11-21T02:57:55;143555.31;;;7.00;100.00
14689;BME280;7432;48.728;9.154;2023-11-21T03:00:22;143550.50;;;6.98;100.00
14689;BME280;7432;48.728;9.154;2023-11-21T03:02:51;143554.09;;;7.00;100.00
14689;BME280;7432;48.728;9.154;2023-11-21T03:05:17;143552.94;;;6.99;100.00
14689;BME280;7432;48.728;9.154;2023-11-21T03:07:43;143566.16;;;7.05;100.00
14689;BME280;7432;48.728;9.154;2023-11-21T03:10:10;143579.44;;;7.10;100.00
14689;BME280;7432;48.728;9.154;2023-11-21T03:12:37;143584.31;;;7.12;100.00
14689;BME280;7432;48.728;9.154;2023-11-21T03:15:06;143584.31;;;7.12;100.00
14689;BME280;7432;48.728;9.154;2023-11-21T03:17:32;143584.31;;;7.12;100.00
14689;BME280;7432;48.728;9.154;2023-11-21T03:19:59;143581.88;;;7.11;100.00
14689;BME280;7432;48.728;9.154;2023-11-21T03:22:26;143593.94;;;7.16;100.00
14689;BME280;7432;48.728;9.154;2023-11-21T03:24:52;143591.53;;;7.15;100.00
14689;BME280;7432;48.728;9.154;2023-11-21T03:27:19;143598.75;;;7.18;100.00
14689;BME280;7432;48.728;9.154;2023-11-21T03:29:45;143595.16;;;7.17;100.00
14689;BME280;7432;48.728;9.154;2023-11-21T03:32:13;143604.81;;;7.21;100.00
14689;BME280;7432;48.728;9.154;2023-11-21T03:34:53;143616.88;;;7.26;100.00
14689;BME280;7432;48.728;9.154;2023-11-21T03:37:20;143606.00;;;7.22;100.00
14689;BME280;7432;48.728;9.154;2023-11-21T03:39:46;143614.44;;;7.25;100.00
14689;BME280;7432;48.728;9.154;2023-11-21T03:42:13;143618.09;;;7.27;100.00
14689;BME280;7432;48.728;9.154;2023-11-21T03:44:39;143619.25;;;7.27;100.00
14689;BME280;7432;48.728;9.154;2023-11-21T03:47:06;143619.25;;;7.27;100.00
14689;BME280;7432;48.728;9.154;2023-11-21T03:49:33;143622.91;;;7.29;100.00
14689;BME280;7432;48.728;9.154;2023-11-21T03:52:00;143626.50;;;7.30;100.00
14689;BME280;7432;48.728;9.154;2023-11-21T03:54:27;143622.91;;;7.29;100.00
14689;BME280;7432;48.728;9.154;2023-11-21T03:56:54;143628.94;;;7.31;100.00
14689;BME280;7432;48.728;9.154;2023-11-21T03:59:20;143613.22;;;7.25;100.00
14689;BME280;7432;48.728;9.154;2023-11-21T04:01:49;143607.22;;;7.22;100.00
14689;BME280;7432;48.728;9.154;2023-11-21T04:04:16;143603.59;;;7.21;100.00
14689;BME280;7432;48.728;9.154;2023-11-21T04:06:43;143620.47;;;7.28;100.00
14689;BME280;7432;48.728;9.154;2023-11-21T04:09:10;143618.09;;;7.27;100.00
14689;BME280;7432;48.728;9.154;2023-11-21T04:11:37;143606.00;;;7.22;100.00
14689;BME280;7432;48.728;9.154;2023-11-21T04:14:04;143612.03;;;7.24;100.00
14689;BME280;7432;48.728;9.154;2023-11-21T04:16:30;143627.72;;;7.31;100.00
14689;BME280;7432;48.728;9.154;2023-11-21T04:18:57;143624.13;;;7.29;100.00
14689;BME280;7432;48.728;9.154;2023-11-21T04:21:23;143625.28;;;7.30;100.00
14689;BME280;7432;48.728;9.154;2023-11-21T04:23:51;143628.94;;;7.31;100.00
14689;BME280;7432;48.728;9.154;2023-11-21T04:26:17;143630.16;;;7.32;100.00
14689;BME280;7432;48.728;9.154;2023-11-21T04:28:44;143621.69;;;7.28;100.00
14689;BME280;7432;48.728;9.154;2023-11-21T04:31:10;143632.53;;;7.33;100.00
14689;BME280;7432;48.728;9.154;2023-11-21T04:33:37;143609.63;;;7.23;100.00
14689;BME280;7432;48.728;9.154;2023-11-21T04:36:04;143609.63;;;7.23;100.00
14689;BME280;7432;48.728;9.154;2023-11-21T04:38:30;143591.53;;;7.15;100.00
14689;BME280;7432;48.728;9.154;2023-11-21T04:40:58;143593.94;;;7.16;100.00
14689;BME280;7432;48.728;9.154;2023-11-21T04:43:24;143602.41;;;7.20;100.00
14689;BME280;7432;48.728;9.154;2023-11-21T04:45:51;143599.97;;;7.19;100.00
14689;BME280;7432;48.728;9.154;2023-11-21T04:48:17;143607.22;;;7.22;100.00
14689;BME280;7432;48.728;9.154;2023-11-21T04:50:43;143598.75;;;7.18;100.00
14689;BME280;7432;48.728;9.154;2023-11-21T04:53:10;143591.53;;;7.15;100.00
14689;BME280;7432;48.728;9.154;2023-11-21T04:55:38;143597.56;;;7.18;100.00
14689;BME280;7432;48.728;9.154;2023-11-21T04:58:06;143602.41;;;7.20;100.00
14689;BME280;7432;48.728;9.154;2023-11-21T05:00:33;143609.63;;;7.23;100.00
14689;BME280;7432;48.728;9.154;2023-11-21T05:03:01;143607.22;;;7.22;100.00
14689;BME280;7432;48.728;9.154;2023-11-21T05:05:28;143598.75;;;7.18;100.00
14689;BME280;7432;48.728;9.154;2023-11-21T05:07:55;143604.81;;;7.21;100.00
14689;BME280;7432;48.728;9.154;2023-11-21T05:10:21;143614.44;;;7.25;100.00
14689;BME280;7432;48.728;9.154;2023-11-21T05:12:48;143612.03;;;7.24;100.00
14689;BME280;7432;48.728;9.154;2023-11-21T05:15:16;143592.72;;;7.16;100.00
14689;BME280;7432;48.728;9.154;2023-11-21T05:17:44;143596.34;;;7.18;100.00
14689;BME280;7432;48.728;9.154;2023-11-21T05:20:11;143591.53;;;7.15;100.00
14689;BME280;7432;48.728;9.154;2023-11-21T05:22:39;143585.53;;;7.13;100.00
14689;BME280;7432;48.728;9.154;2023-11-21T05:25:06;143579.44;;;7.10;100.00
14689;BME280;7432;48.728;9.154;2023-11-21T05:27:33;143558.97;;;7.02;100.00
14689;BME280;7432;48.728;9.154;2023-11-21T05:30:01;143556.53;;;7.01;100.00
14689;BME280;7432;48.728;9.154;2023-11-21T05:32:31;143556.53;;;7.01;100.00
14689;BME280;7432;48.728;9.154;2023-11-21T05:34:58;143573.41;;;7.08;100.00
14689;BME280;7432;48.728;9.154;2023-11-21T05:37:24;143557.75;;;7.01;100.00
14689;BME280;7432;48.728;9.154;2023-11-21T05:39:52;143549.28;;;6.98;100.00
14689;BME280;7432;48.728;9.154;2023-11-21T05:42:21;143537.25;;;6.93;100.00
14689;BME280;7432;48.728;9.154;2023-11-21T05:44:48;143527.56;;;6.89;100.00
14689;BME280;7432;48.728;9.154;2023-11-21T05:47:15;143522.75;;;6.87;100.00
14689;BME280;7432;48.728;9.154;2023-11-21T05:49:43;143519.16;;;6.85;100.00
14689;BME280;7432;48.728;9.154;2023-11-21T05:52:10;143519.16;;;6.85;100.00
14689;BME280;7432;48.728;9.154;2023-11-21T05:54:37;143513.13;;;6.83;100.00
14689;BME280;7432;48.728;9.154;2023-11-21T05:57:03;143530.00;;;6.90;100.00
14689;BME280;7432;48.728;9.154;2023-11-21T05:59:30;143526.38;;;6.88;100.00
14689;BME280;7432;48.728;9.154;2023-11-21T06:01:56;143520.31;;;6.86;100.00
14689;BME280;7432;48.728;9.154;2023-11-21T06:04:23;143516.72;;;6.84;100.00
14689;BME280;7432;48.728;9.154;2023-11-21T06:06:52;143503.44;;;6.79;100.00
14689;BME280;7432;48.728;9.154;2023-11-21T06:09:19;143516.72;;;6.84;100.00
14689;BME280;7432;48.728;9.154;2023-11-21T06:11:45;143519.16;;;6.85;100.00
14689;BME280;7432;48.728;9.154;2023-11-21T06:14:12;143514.28;;;6.83;100.00
14689;BME280;7432;48.728;9.154;2023-11-21T06:16:38;143517.94;;;6.85;100.00
14689;BME280;7432;48.728;9.154;2023-11-21T06:19:05;143523.97;;;6.87;100.00
14689;BME280;7432;48.728;9.154;2023-11-21T06:21:31;143523.97;;;6.87;100.00
14689;BME280;7432;48.728;9.154;2023-11-21T06:24:00;143531.22;;;6.90;100.00
14689;BME280;7432;48.728;9.154;2023-11-21T06:26:26;143534.81;;;6.92;100.00
14689;BME280;7432;48.728;9.154;2023-11-21T06:28:53;143521.53;;;6.86;100.00
14689;BME280;7432;48.728;9.154;2023-11-21T06:31:20;143515.50;;;6.84;100.00
14689;BME280;7432;48.728;9.154;2023-11-21T06:33:47;143510.69;;;6.82;100.00
14689;BME280;7432;48.728;9.154;2023-11-21T06:36:13;143505.88;;;6.80;100.00
14689;BME280;7432;48.728;9.154;2023-11-21T06:38:39;143502.22;;;6.78;100.00
14689;BME280;7432;48.728;9.154;2023-11-21T06:41:07;143530.00;;;6.90;100.00
14689;BME280;7432;48.728;9.154;2023-11-21T06:43:33;143538.44;;;6.93;100.00
14689;BME280;7432;48.728;9.154;2023-11-21T06:46:01;143551.72;;;6.99;100.00
14689;BME280;7432;48.728;9.154;2023-11-21T06:48:27;143545.69;;;6.96;100.00
14689;BME280;7432;48.728;9.154;2023-11-21T06:50:55;143558.97;;;7.02;100.00
14689;BME280;7432;48.728;9.154;2023-11-21T06:53:21;143568.59;;;7.06;100.00
14689;BME280;7432;48.728;9.154;2023-11-21T06:55:48;143581.88;;;7.11;100.00
14689;BME280;7432;48.728;9.154;2023-11-21T06:58:15;143589.13;;;7.14;100.00
14689;BME280;7432;48.728;9.154;2023-11-21T07:00:42;143601.19;;;7.20;100.00
14689;BME280;7432;48.728;9.154;2023-11-21T07:03:11;143614.44;;;7.25;100.00
14689;BME280;7432;48.728;9.154;2023-11-21T07:05:38;143622.91;;;7.29;100.00
14689;BME280;7432;48.728;9.154;2023-11-21T07:08:04;143628.94;;;7.31;100.00
14689;BME280;7432;48.728;9.154;2023-11-21T07:10:32;143641.00;;;7.36;100.00
14689;BME280;7432;48.728;9.154;2023-11-21T07:13:00;143649.47;;;7.40;100.00
14689;BME280;7432;48.728;9.154;2023-11-21T07:15:27;143676.03;;;7.51;100.00
14689;BME280;7432;48.728;9.154;2023-11-21T07:17:54;143691.69;;;7.57;100.00
14689;BME280;7432;48.728;9.154;2023-11-21T07:20:20;143700.16;;;7.61;100.00
14689;BME280;7432;48.728;9.154;2023-11-21T07:22:47;143683.28;;;7.54;100.00
14689;BME280;7432;48.728;9.154;2023-11-21T07:25:13;143682.06;;;7.53;100.00
14689;BME280;7432;48.728;9.154;2023-11-21T07:27:40;143695.34;;;7.59;100.00
14689;BME280;7432;48.728;9.154;2023-11-21T07:30:07;143663.97;;;7.46;100.00
14689;BME280;7432;48.728;9.154;2023-11-21T07:32:36;143688.09;;;7.56;100.00
14689;BME280;7432;48.728;9.154;2023-11-21T07:35:05;143690.47;;;7.57;100.00
14689;BME280;7432;48.728;9.154;2023-11-21T07:37:33;143692.91;;;7.58;100.00
14689;BME280;7432;48.728;9.154;2023-11-21T07:39:59;143686.88;;;7.55;100.00
14689;BME280;7432;48.728;9.154;2023-11-21T07:42:26;143701.38;;;7.61;100.00
14689;BME280;7432;48.728;9.154;2023-11-21T07:44:52;143713.44;;;7.66;100.00
14689;BME280;7432;48.728;9.154;2023-11-21T07:47:18;143703.75;;;7.62;100.00
14689;BME280;7432;48.728;9.154;2023-11-21T07:49:46;143701.38;;;7.61;100.00
14689;BME280;7432;48.728;9.154;2023-11-21T07:52:13;143712.22;;;7.66;100.00
14689;BME280;7432;48.728;9.154;2023-11-21T07:54:41;143723.06;;;7.70;100.00
14689;BME280;7432;48.728;9.154;2023-11-21T07:57:07;143730.31;;;7.73;100.00
14689;BME280;7432;48.728;9.154;2023-11-21T07:59:34;143736.34;;;7.76;100.00
14689;BME280;7432;48.728;9.154;2023-11-21T08:02:00;143727.94;;;7.72;100.00
14689;BME280;7432;48.728;9.154;2023-11-21T08:04:27;143740.00;;;7.78;100.00
14689;BME280;7432;48.728;9.154;2023-11-21T08:06:54;143742.44;;;7.79;100.00
14689;BME280;7432;48.728;9.154;2023-11-21T08:09:21;143744.81;;;7.80;100.00
14689;BME280;7432;48.728;9.154;2023-11-21T08:11:48;143760.53;;;7.86;100.00
14689;BME280;7432;48.728;9.154;2023-11-21T08:14:15;143762.91;;;7.87;100.00
14689;BME280;7432;48.728;9.154;2023-11-21T08:16:41;143783.44;;;7.96;100.00
14689;BME280;7432;48.728;9.154;2023-11-21T08:19:09;143794.34;;;8.00;100.00
14689;BME280;7432;48.728;9.154;2023-11-21T08:21:36;143796.72;;;8.01;100.00
14689;BME280;7432;48.728;9.154;2023-11-21T08:24:07;143795.50;;;8.01;100.00
14689;BME280;7432;48.728;9.154;2023-11-21T08:26:36;143810.00;;;8.07;100.00
14689;BME280;7432;48.728;9.154;2023-11-21T08:29:02;143813.66;;;8.08;100.00
14689;BME280;7432;48.728;9.154;2023-11-21T08:31:28;143812.44;;;8.08;100.00
14689;BME280;7432;48.728;9.154;2023-11-21T08:33:55;143824.50;;;8.13;100.00
14689;BME280;7432;48.728;9.154;2023-11-21T08:36:22;143826.94;;;8.14;100.00
14689;BME280;7432;48.728;9.154;2023-11-21T08:38:49;143824.50;;;8.13;100.00
14689;BME280;7432;48.728;9.154;2023-11-21T08:41:18;143830.56;;;8.15;100.00
14689;BME280;7432;48.728;9.154;2023-11-21T08:43:47;143831.75;;;8.16;100.00
14689;BME280;7432;48.728;9.154;2023-11-21T08:46:14;143846.28;;;8.22;100.00
14689;BME280;7432;48.728;9.154;2023-11-21T08:48:40;143864.41;;;8.29;100.00
14689;BME280;7432;48.728;9.154;2023-11-21T08:51:10;143884.97;;;8.38;100.00
14689;BME280;7432;48.728;9.154;2023-11-21T08:53:37;143903.06;;;8.46;100.00
14689;BME280;7432;48.728;9.154;2023-11-21T08:56:04;143941.72;;;8.62;100.00
14689;BME280;7432;48.728;9.154;2023-11-21T08:58:32;143991.28;;;8.82;100.00
14689;BME280;7432;48.728;9.154;2023-11-21T09:00:58;144057.72;;;9.10;100.00
14689;BME280;7432;48.728;9.154;2023-11-21T09:03:24;144124.22;;;9.38;100.00
14689;BME280;7432;48.728;9.154;2023-11-21T09:05:51;144166.56;;;9.56;100.00
14689;BME280;7432;48.728;9.154;2023-11-21T09:08:18;144205.22;;;9.72;99.93
14689;BME280;7432;48.728;9.154;2023-11-21T09:10:44;144230.63;;;9.82;99.40
14689;BME280;7432;48.728;9.154;2023-11-21T09:13:12;144276.59;;;10.01;99.34
14689;BME280;7432;48.728;9.154;2023-11-21T09:15:40;144341.94;;;10.29;97.43
14689;BME280;7432;48.728;9.154;2023-11-21T09:18:07;144364.91;;;10.38;95.61
14689;BME280;7432;48.728;9.154;2023-11-21T09:20:33;144461.75;;;10.79;95.46
14689;BME280;7432;48.728;9.154;2023-11-21T09:22:59;144530.72;;;11.07;92.79
14689;BME280;7432;48.728;9.154;2023-11-21T09:25:26;144579.19;;;11.27;91.92
14689;BME280;7432;48.728;9.154;2023-11-21T09:27:54;144588.84;;;11.31;91.46
14689;BME280;7432;48.728;9.154;2023-11-21T09:30:21;144597.34;;;11.35;92.34
14689;BME280;7432;48.728;9.154;2023-11-21T09:32:51;144627.59;;;11.48;91.27
14689;BME280;7432;48.728;9.154;2023-11-21T09:35:17;144667.56;;;11.64;90.76
14689;BME280;7432;48.728;9.154;2023-11-21T09:37:44;144685.81;;;11.72;89.06
14689;BME280;7432;48.728;9.154;2023-11-21T09:40:11;144751.22;;;11.99;88.82
14689;BME280;7432;48.728;9.154;2023-11-21T09:42:45;144747.56;;;11.98;88.32
14689;BME280;7432;48.728;9.154;2023-11-21T09:45:17;144739.06;;;11.94;88.48
14689;BME280;7432;48.728;9.154;2023-11-21T09:47:46;144707.56;;;11.81;88.14
14689;BME280;7432;48.728;9.154;2023-11-21T09:50:16;144670.00;;;11.65;87.96
14689;BME280;7432;48.728;9.154;2023-11-21T09:52:49;144651.84;;;11.58;87.98
14689;BME280;7432;48.728;9.154;2023-11-21T09:55:20;144617.91;;;11.44;87.89
14689;BME280;7432;48.728;9.154;2023-11-21T09:57:48;144553.75;;;11.17;87.58
14689;BME280;7432;48.728;9.154;2023-11-21T10:00:16;144475.06;;;10.84;88.73
14689;BME280;7432;48.728;9.154;2023-11-21T10:02:43;144414.56;;;10.59;89.37
14689;BME280;7432;48.728;9.154;2023-11-21T10:05:09;144410.91;;;10.57;89.40
14689;BME280;7432;48.728;9.154;2023-11-21T10:07:39;144408.50;;;10.56;90.10
14689;BME280;7432;48.728;9.154;2023-11-21T10:10:07;144392.75;;;10.50;90.49
14689;BME280;7432;48.728;9.154;2023-11-21T10:12:35;144386.72;;;10.47;92.07
14689;BME280;7432;48.728;9.154;2023-11-21T10:15:07;144348.00;;;10.31;92.34
14689;BME280;7432;48.728;9.154;2023-11-21T10:17:36;144344.38;;;10.30;92.15
14689;BME280;7432;48.728;9.154;2023-11-21T10:20:09;144329.88;;;10.24;93.09
14689;BME280;7432;48.728;9.154;2023-11-21T10:22:40;144323.81;;;10.21;92.79
14689;BME280;7432;48.728;9.154;2023-11-21T10:25:07;144317.78;;;10.19;93.71
14689;BME280;7432;48.728;9.154;2023-11-21T10:27:34;144312.91;;;10.17;94.19
14689;BME280;7432;48.728;9.154;2023-11-21T10:30:00;144299.53;;;10.11;94.52
14689;BME280;7432;48.728;9.154;2023-11-21T10:32:28;144285.06;;;10.05;95.16
14689;BME280;7432;48.728;9.154;2023-11-21T10:34:57;144264.50;;;9.96;95.15
14689;BME280;7432;48.728;9.154;2023-11-21T10:37:25;144246.38;;;9.89;95.63
14689;BME280;7432;48.728;9.154;2023-11-21T10:39:57;144248.75;;;9.90;96.33
14689;BME280;7432;48.728;9.154;2023-11-21T10:42:23;144246.38;;;9.89;95.92
14689;BME280;7432;48.728;9.154;2023-11-21T10:44:50;144236.66;;;9.85;96.03
14689;BME280;7432;48.728;9.154;2023-11-21T10:47:17;144197.97;;;9.69;96.68
14689;BME280;7432;48.728;9.154;2023-11-21T10:49:44;144189.50;;;9.65;97.77
14689;BME280;7432;48.728;9.154;2023-11-21T10:52:12;144158.06;;;9.52;98.41
14689;BME280;7432;48.728;9.154;2023-11-21T10:54:42;144129.03;;;9.40;99.20
14689;BME280;7432;48.728;9.154;2023-11-21T10:57:10;144118.16;;;9.35;99.94
14689;BME280;7432;48.728;9.154;2023-11-21T10:59:41;144113.34;;;9.33;100.00
14689;BME280;7432;48.728;9.154;2023-11-21T11:02:12;144113.34;;;9.33;100.00
14689;BME280;7432;48.728;9.154;2023-11-21T11:04:47;144107.31;;;9.31;100.00
14689;BME280;7432;48.728;9.154;2023-11-21T11:07:15;144110.91;;;9.32;100.00
14689;BME280;7432;48.728;9.154;2023-11-21T11:09:42;144135.13;;;9.42;100.00
14689;BME280;7432;48.728;9.154;2023-11-21T11:12:11;144177.41;;;9.60;100.00
14689;BME280;7432;48.728;9.154;2023-11-21T11:14:40;144219.75;;;9.78;98.81
14689;BME280;7432;48.728;9.154;2023-11-21T11:17:09;144231.84;;;9.83;98.51
14689;BME280;7432;48.728;9.154;2023-11-21T11:19:36;144240.28;;;9.86;98.36
14689;BME280;7432;48.728;9.154;2023-11-21T11:22:10;144257.22;;;9.93;98.07
14689;BME280;7432;48.728;9.154;2023-11-21T11:24:57;144264.50;;;9.96;97.42
14689;BME280;7432;48.728;9.154;2023-11-21T11:27:37;144270.53;;;9.99;97.61
14689;BME280;7432;48.728;9.154;2023-11-21T11:30:14;144252.41;;;9.91;98.46
14689;BME280;7432;48.728;9.154;2023-11-21T11:32:50;144229.41;;;9.82;98.97
14689;BME280;7432;48.728;9.154;2023-11-21T11:35:26;144236.66;;;9.85;98.73
14689;BME280;7432;48.728;9.154;2023-11-21T11:37:56;144224.59;;;9.80;99.03
14689;BME280;7432;48.728;9.154;2023-11-21T11:40:25;144222.16;;;9.79;99.34
14689;BME280;7432;48.728;9.154;2023-11-21T11:42:57;144235.44;;;9.84;99.82
14689;BME280;7432;48.728;9.154;2023-11-21T11:45:26;144248.75;;;9.90;99.66
14689;BME280;7432;48.728;9.154;2023-11-21T11:48:00;144262.06;;;9.95;99.43
14689;BME280;7432;48.728;9.154;2023-11-21T11:50:26;144263.28;;;9.96;99.21
14689;BME280;7432;48.728;9.154;2023-11-21T11:52:53;144257.22;;;9.93;99.44
14689;BME280;7432;48.728;9.154;2023-11-21T11:55:24;144249.97;;;9.90;99.44
14689;BME280;7432;48.728;9.154;2023-11-21T11:57:51;144281.41;;;10.03;98.30
14689;BME280;7432;48.728;9.154;2023-11-21T12:00:33;144275.38;;;10.01;98.47
14689;BME280;7432;48.728;9.154;2023-11-21T12:03:03;144298.38;;;10.10;98.03
14689;BME280;7432;48.728;9.154;2023-11-21T12:05:31;144318.94;;;10.19;98.12
14689;BME280;7432;48.728;9.154;2023-11-21T12:08:02;144335.91;;;10.26;97.49
14689;BME280;7432;48.728;9.154;2023-11-21T12:10:30;144361.31;;;10.37;97.12
14689;BME280;7432;48.728;9.154;2023-11-21T12:12:58;144364.91;;;10.38;96.63
14689;BME280;7432;48.728;9.154;2023-11-21T12:15:26;144412.13;;;10.58;97.22
14689;BME280;7432;48.728;9.154;2023-11-21T12:17:54;144423.03;;;10.62;94.94
14689;BME280;7432;48.728;9.154;2023-11-21T12:20:23;144435.13;;;10.67;94.31
14689;BME280;7432;48.728;9.154;2023-11-21T12:22:50;144424.22;;;10.63;94.14
14689;BME280;7432;48.728;9.154;2023-11-21T12:25:18;144421.81;;;10.62;94.39
14689;BME280;7432;48.728;9.154;2023-11-21T12:27:45;144427.88;;;10.64;95.41
14689;BME280;7432;48.728;9.154;2023-11-21T12:30:14;144453.28;;;10.75;93.46
14689;BME280;7432;48.728;9.154;2023-11-21T12:32:44;144415.78;;;10.59;93.02
14689;BME280;7432;48.728;9.154;2023-11-21T12:35:12;144415.78;;;10.59;94.14
14689;BME280;7432;48.728;9.154;2023-11-21T12:37:39;144437.53;;;10.68;93.80
14689;BME280;7432;48.728;9.154;2023-11-21T12:40:06;144452.06;;;10.75;93.79
14689;BME280;7432;48.728;9.154;2023-11-21T12:42:36;144443.56;;;10.71;94.08
14689;BME280;7432;48.728;9.154;2023-11-21T12:45:12;144446.00;;;10.72;93.09
14689;BME280;7432;48.728;9.154;2023-11-21T12:47:47;144438.75;;;10.69;94.15
14689;BME280;7432;48.728;9.154;2023-11-21T12:50:14;144413.34;;;10.58;93.32
14689;BME280;7432;48.728;9.154;2023-11-21T12:52:41;144423.03;;;10.62;94.23
14689;BME280;7432;48.728;9.154;2023-11-21T12:55:13;144375.84;;;10.43;92.05
14689;BME280;7432;48.728;9.154;2023-11-21T12:57:41;144379.44;;;10.44;94.04
14689;BME280;7432;48.728;9.154;2023-11-21T13:00:09;144341.94;;;10.29;94.52
14689;BME280;7432;48.728;9.154;2023-11-21T13:02:41;144361.31;;;10.37;95.66